sensor_id;sensor_type;location;lat;lon;timestamp;pressure;altitude;pressure_sealevel;temperature;humidity
52735;BME280;38631;47.572;10.704;2023-06-10T00:01:39;92195.69;;;14.55;88.58
52735;BME280;38631;47.572;10.704;2023-06-10T00:04:05;92208.69;;;14.56;87.86
52735;BME280;38631;47.572;10.704;2023-06-10T00:06:31;92197.91;;;14.28;89.03
52735;BME280;38631;47.572;10.704;2023-06-10T00:09:05;92194.00;;;14.38;89.42
52735;BME280;38631;47.572;10.704;2023-06-10T00:11:33;92193.47;;;14.32;88.75
52735;BME280;38631;47.572;10.704;2023-06-10T00:13:59;92188.34;;;13.78;91.24
52735;BME280;38631;47.572;10.704;2023-06-10T00:16:25;92177.69;;;14.02;90.65
52735;BME280;38631;47.572;10.704;2023-06-10T00:18:50;92189.44;;;14.26;90.12
52735;BME280;38631;47.572;10.704;2023-06-10T00:21:17;92197.91;;;14.40;89.03
52735;BME280;38631;47.572;10.704;2023-06-10T00:23:42;92192.72;;;14.07;89.77
52735;BME280;38631;47.572;10.704;2023-06-10T00:26:09;92192.00;;;13.61;92.97
52735;BME280;38631;47.572;10.704;2023-06-10T00:28:34;92192.34;;;13.72;92.77
52735;BME280;38631;47.572;10.704;2023-06-10T00:31:01;92184.25;;;13.80;92.44
52735;BME280;38631;47.572;10.704;2023-06-10T00:33:26;92185.03;;;14.05;91.86
52735;BME280;38631;47.572;10.704;2023-06-10T00:35:52;92176.34;;;13.96;91.08
52735;BME280;38631;47.572;10.704;2023-06-10T00:38:17;92177.91;;;14.10;91.03
52735;BME280;38631;47.572;10.704;2023-06-10T00:40:43;92174.22;;;13.53;92.13
52735;BME280;38631;47.572;10.704;2023-06-10T00:43:08;92175.69;;;13.63;93.20
52735;BME280;38631;47.572;10.704;2023-06-10T00:45:34;92169.34;;;13.79;91.98
52735;BME280;38631;47.572;10.704;2023-06-10T00:48:01;92165.88;;;13.79;91.29
52735;BME280;38631;47.572;10.704;2023-06-10T00:50:26;92174.56;;;13.76;91.35
52735;BME280;38631;47.572;10.704;2023-06-10T00:52:53;92165.03;;;13.87;91.35
52735;BME280;38631;47.572;10.704;2023-06-10T00:55:20;92169.22;;;13.88;90.21
52735;BME280;38631;47.572;10.704;2023-06-10T00:57:46;92178.81;;;13.77;90.87
52735;BME280;38631;47.572;10.704;2023-06-10T01:00:14;92168.31;;;13.35;91.99
52735;BME280;38631;47.572;10.704;2023-06-10T01:02:40;92157.31;;;13.49;92.26
52735;BME280;38631;47.572;10.704;2023-06-10T01:05:09;92172.41;;;12.99;95.21
52735;BME280;38631;47.572;10.704;2023-06-10T01:07:56;92184.44;;;13.17;93.98
52735;BME280;38631;47.572;10.704;2023-06-10T01:10:33;92169.75;;;13.45;94.65
52735;BME280;38631;47.572;10.704;2023-06-10T01:13:09;92178.41;;;13.08;93.79
52735;BME280;38631;47.572;10.704;2023-06-10T01:15:38;92177.31;;;13.09;94.01
52735;BME280;38631;47.572;10.704;2023-06-10T01:18:08;92170.06;;;12.97;95.59
52735;BME280;38631;47.572;10.704;2023-06-10T01:20:35;92174.91;;;12.62;97.78
52735;BME280;38631;47.572;10.704;2023-06-10T01:23:05;92169.84;;;13.03;95.50
52735;BME280;38631;47.572;10.704;2023-06-10T01:25:32;92172.88;;;13.13;94.25
52735;BME280;38631;47.572;10.704;2023-06-10T01:28:18;92187.31;;;13.46;94.17
52735;BME280;38631;47.572;10.704;2023-06-10T01:31:06;92185.19;;;13.27;93.48
52735;BME280;38631;47.572;10.704;2023-06-10T01:33:39;92177.22;;;12.85;95.29
52735;BME280;38631;47.572;10.704;2023-06-10T01:36:06;92186.31;;;12.84;96.25
52735;BME280;38631;47.572;10.704;2023-06-10T01:38:46;92175.91;;;12.91;96.00
52735;BME280;38631;47.572;10.704;2023-06-10T01:41:14;92186.88;;;13.10;95.55
52735;BME280;38631;47.572;10.704;2023-06-10T01:43:43;92193.31;;;13.09;95.28
52735;BME280;38631;47.572;10.704;2023-06-10T01:46:09;92192.00;;;12.82;95.83
52735;BME280;38631;47.572;10.704;2023-06-10T01:48:36;92196.16;;;12.71;97.11
52735;BME280;38631;47.572;10.704;2023-06-10T01:51:02;92182.19;;;12.74;97.63
52735;BME280;38631;47.572;10.704;2023-06-10T01:53:28;92176.38;;;12.93;96.49
52735;BME280;38631;47.572;10.704;2023-06-10T01:55:54;92186.56;;;12.91;95.46
52735;BME280;38631;47.572;10.704;2023-06-10T01:58:19;92188.75;;;12.77;96.48
52735;BME280;38631;47.572;10.704;2023-06-10T02:00:45;92188.50;;;13.03;94.73
52735;BME280;38631;47.572;10.704;2023-06-10T02:03:10;92195.13;;;13.17;94.72
52735;BME280;38631;47.572;10.704;2023-06-10T02:05:36;92187.31;;;13.12;94.40
52735;BME280;38631;47.572;10.704;2023-06-10T02:08:01;92197.06;;;13.08;95.54
52735;BME280;38631;47.572;10.704;2023-06-10T02:10:27;92183.22;;;13.15;94.44
52735;BME280;38631;47.572;10.704;2023-06-10T02:12:55;92192.19;;;13.10;94.85
52735;BME280;38631;47.572;10.704;2023-06-10T02:15:20;92191.38;;;12.97;94.87
52735;BME280;38631;47.572;10.704;2023-06-10T02:17:46;92191.63;;;13.05;94.34
52735;BME280;38631;47.572;10.704;2023-06-10T02:20:11;92194.09;;;12.89;95.07
52735;BME280;38631;47.572;10.704;2023-06-10T02:22:37;92192.13;;;12.65;96.99
52735;BME280;38631;47.572;10.704;2023-06-10T02:25:03;92197.78;;;12.42;98.70
52735;BME280;38631;47.572;10.704;2023-06-10T02:27:29;92194.09;;;12.77;97.24
52735;BME280;38631;47.572;10.704;2023-06-10T02:29:56;92187.84;;;12.51;96.70
52735;BME280;38631;47.572;10.704;2023-06-10T02:32:21;92201.94;;;12.52;97.88
52735;BME280;38631;47.572;10.704;2023-06-10T02:34:47;92184.44;;;12.63;97.07
52735;BME280;38631;47.572;10.704;2023-06-10T02:37:14;92200.50;;;12.75;96.29
52735;BME280;38631;47.572;10.704;2023-06-10T02:39:40;92180.47;;;12.90;95.58
52735;BME280;38631;47.572;10.704;2023-06-10T02:42:06;92193.28;;;12.76;95.25
52735;BME280;38631;47.572;10.704;2023-06-10T02:44:32;92189.78;;;12.63;96.51
52735;BME280;38631;47.572;10.704;2023-06-10T02:46:57;92181.72;;;12.51;97.36
52735;BME280;38631;47.572;10.704;2023-06-10T02:49:23;92208.25;;;12.47;96.45
52735;BME280;38631;47.572;10.704;2023-06-10T02:51:50;92196.53;;;12.40;97.71
52735;BME280;38631;47.572;10.704;2023-06-10T02:54:22;92187.63;;;12.78;96.40
52735;BME280;38631;47.572;10.704;2023-06-10T02:56:48;92196.94;;;12.29;97.52
52735;BME280;38631;47.572;10.704;2023-06-10T02:59:14;92196.72;;;12.56;97.22
52735;BME280;38631;47.572;10.704;2023-06-10T03:01:40;92203.03;;;12.00;99.52
52735;BME280;38631;47.572;10.704;2023-06-10T03:04:06;92205.03;;;12.33;98.66
52735;BME280;38631;47.572;10.704;2023-06-10T03:06:32;92193.91;;;12.10;99.46
52735;BME280;38631;47.572;10.704;2023-06-10T03:09:01;92197.44;;;12.23;98.82
52735;BME280;38631;47.572;10.704;2023-06-10T03:11:27;92181.59;;;12.47;97.87
52735;BME280;38631;47.572;10.704;2023-06-10T03:13:52;92198.66;;;12.46;96.27
52735;BME280;38631;47.572;10.704;2023-06-10T03:16:21;92211.09;;;12.63;96.38
52735;BME280;38631;47.572;10.704;2023-06-10T03:18:46;92211.63;;;12.57;95.86
52735;BME280;38631;47.572;10.704;2023-06-10T03:21:12;92214.50;;;12.51;95.94
52735;BME280;38631;47.572;10.704;2023-06-10T03:23:37;92217.41;;;12.08;97.65
52735;BME280;38631;47.572;10.704;2023-06-10T03:26:03;92206.47;;;12.01;99.49
52735;BME280;38631;47.572;10.704;2023-06-10T03:28:30;92217.75;;;12.27;98.37
52735;BME280;38631;47.572;10.704;2023-06-10T03:30:56;92206.56;;;12.13;97.78
52735;BME280;38631;47.572;10.704;2023-06-10T03:33:22;92216.31;;;12.09;99.72
52735;BME280;38631;47.572;10.704;2023-06-10T03:35:47;92227.75;;;12.30;98.47
52735;BME280;38631;47.572;10.704;2023-06-10T03:38:13;92212.31;;;12.24;97.98
52735;BME280;38631;47.572;10.704;2023-06-10T03:40:39;92212.06;;;12.38;97.48
52735;BME280;38631;47.572;10.704;2023-06-10T03:43:05;92222.06;;;12.41;96.63
52735;BME280;38631;47.572;10.704;2023-06-10T03:45:31;92226.50;;;12.07;98.01
52735;BME280;38631;47.572;10.704;2023-06-10T03:47:57;92237.59;;;12.09;100.00
52735;BME280;38631;47.572;10.704;2023-06-10T03:50:23;92227.09;;;12.13;98.96
52735;BME280;38631;47.572;10.704;2023-06-10T03:52:49;92241.25;;;12.25;98.91
52735;BME280;38631;47.572;10.704;2023-06-10T03:55:15;92241.63;;;12.15;99.13
52735;BME280;38631;47.572;10.704;2023-06-10T03:57:42;92243.25;;;12.07;99.81
52735;BME280;38631;47.572;10.704;2023-06-10T04:00:08;92258.38;;;12.16;100.00
52735;BME280;38631;47.572;10.704;2023-06-10T04:02:37;92238.88;;;12.32;99.16
52735;BME280;38631;47.572;10.704;2023-06-10T04:05:17;92242.66;;;12.31;98.79
52735;BME280;38631;47.572;10.704;2023-06-10T04:07:43;92243.06;;;12.42;99.48
52735;BME280;38631;47.572;10.704;2023-06-10T04:10:10;92237.06;;;12.45;99.04
52735;BME280;38631;47.572;10.704;2023-06-10T04:12:36;92248.84;;;12.65;99.96
52735;BME280;38631;47.572;10.704;2023-06-10T04:15:04;92248.06;;;12.65;99.66
52735;BME280;38631;47.572;10.704;2023-06-10T04:17:30;92257.09;;;12.72;100.00
52735;BME280;38631;47.572;10.704;2023-06-10T04:19:56;92236.25;;;12.74;100.00
52735;BME280;38631;47.572;10.704;2023-06-10T04:22:22;92246.63;;;12.88;99.79
52735;BME280;38631;47.572;10.704;2023-06-10T04:24:48;92237.41;;;12.86;99.09
52735;BME280;38631;47.572;10.704;2023-06-10T04:27:13;92240.28;;;13.02;97.79
52735;BME280;38631;47.572;10.704;2023-06-10T04:29:39;92234.41;;;13.08;96.39
52735;BME280;38631;47.572;10.704;2023-06-10T04:32:06;92242.72;;;13.28;95.62
52735;BME280;38631;47.572;10.704;2023-06-10T04:34:35;92246.34;;;13.56;96.00
52735;BME280;38631;47.572;10.704;2023-06-10T04:37:00;92246.28;;;13.77;93.99
52735;BME280;38631;47.572;10.704;2023-06-10T04:39:26;92257.31;;;13.88;94.35
52735;BME280;38631;47.572;10.704;2023-06-10T04:41:52;92238.38;;;13.69;94.04
52735;BME280;38631;47.572;10.704;2023-06-10T04:44:18;92253.19;;;13.91;92.98
52735;BME280;38631;47.572;10.704;2023-06-10T04:46:44;92249.00;;;14.02;92.43
52735;BME280;38631;47.572;10.704;2023-06-10T04:49:09;92250.78;;;14.22;90.54
52735;BME280;38631;47.572;10.704;2023-06-10T04:51:35;92247.13;;;14.15;90.90
52735;BME280;38631;47.572;10.704;2023-06-10T04:54:01;92262.69;;;14.13;91.07
52735;BME280;38631;47.572;10.704;2023-06-10T04:56:30;92258.66;;;14.07;89.98
52735;BME280;38631;47.572;10.704;2023-06-10T04:58:59;92246.53;;;13.97;89.12
52735;BME280;38631;47.572;10.704;2023-06-10T05:01:25;92253.09;;;14.12;88.64
52735;BME280;38631;47.572;10.704;2023-06-10T05:03:50;92244.88;;;14.04;87.99
52735;BME280;38631;47.572;10.704;2023-06-10T05:06:16;92243.31;;;14.16;87.28
52735;BME280;38631;47.572;10.704;2023-06-10T05:08:42;92246.66;;;14.62;85.84
52735;BME280;38631;47.572;10.704;2023-06-10T05:11:07;92250.72;;;14.84;83.91
52735;BME280;38631;47.572;10.704;2023-06-10T05:13:34;92258.06;;;14.87;85.00
52735;BME280;38631;47.572;10.704;2023-06-10T05:15:59;92264.97;;;15.28;81.99
52735;BME280;38631;47.572;10.704;2023-06-10T05:18:24;92270.72;;;15.43;81.56
52735;BME280;38631;47.572;10.704;2023-06-10T05:20:50;92258.69;;;15.37;83.54
52735;BME280;38631;47.572;10.704;2023-06-10T05:23:16;92252.91;;;15.34;81.70
52735;BME280;38631;47.572;10.704;2023-06-10T05:25:41;92257.44;;;15.62;80.83
52735;BME280;38631;47.572;10.704;2023-06-10T05:28:07;92263.91;;;15.73;79.89
52735;BME280;38631;47.572;10.704;2023-06-10T05:30:35;92247.53;;;15.91;81.74
52735;BME280;38631;47.572;10.704;2023-06-10T05:33:01;92258.38;;;15.82;81.01
52735;BME280;38631;47.572;10.704;2023-06-10T05:35:26;92269.97;;;16.02;78.45
52735;BME280;38631;47.572;10.704;2023-06-10T05:37:52;92261.78;;;16.11;76.68
52735;BME280;38631;47.572;10.704;2023-06-10T05:40:17;92261.69;;;16.23;76.39
52735;BME280;38631;47.572;10.704;2023-06-10T05:42:43;92262.44;;;16.39;75.59
52735;BME280;38631;47.572;10.704;2023-06-10T05:45:09;92273.50;;;16.54;74.96
52735;BME280;38631;47.572;10.704;2023-06-10T05:47:34;92257.22;;;16.62;74.87
52735;BME280;38631;47.572;10.704;2023-06-10T05:50:00;92251.66;;;16.04;77.74
52735;BME280;38631;47.572;10.704;2023-06-10T05:52:25;92260.44;;;16.68;76.74
52735;BME280;38631;47.572;10.704;2023-06-10T05:54:51;92266.78;;;16.95;74.73
52735;BME280;38631;47.572;10.704;2023-06-10T05:57:16;92270.38;;;16.68;76.67
52735;BME280;38631;47.572;10.704;2023-06-10T05:59:42;92253.38;;;15.96;78.51
52735;BME280;38631;47.572;10.704;2023-06-10T06:02:08;92259.16;;;16.46;77.35
52735;BME280;38631;47.572;10.704;2023-06-10T06:04:34;92267.09;;;17.10;76.28
52735;BME280;38631;47.572;10.704;2023-06-10T06:06:59;92278.69;;;17.53;75.36
52735;BME280;38631;47.572;10.704;2023-06-10T06:09:25;92264.00;;;17.46;74.81
52735;BME280;38631;47.572;10.704;2023-06-10T06:11:50;92282.16;;;17.34;74.26
52735;BME280;38631;47.572;10.704;2023-06-10T06:14:16;92263.00;;;17.35;73.97
52735;BME280;38631;47.572;10.704;2023-06-10T06:16:43;92281.16;;;17.61;74.80
52735;BME280;38631;47.572;10.704;2023-06-10T06:19:09;92271.19;;;17.62;72.02
52735;BME280;38631;47.572;10.704;2023-06-10T06:21:36;92277.00;;;17.64;73.06
52735;BME280;38631;47.572;10.704;2023-06-10T06:24:02;92289.69;;;17.67;71.94
52735;BME280;38631;47.572;10.704;2023-06-10T06:26:27;92285.63;;;17.54;72.75
52735;BME280;38631;47.572;10.704;2023-06-10T06:28:53;92286.44;;;17.58;72.72
52735;BME280;38631;47.572;10.704;2023-06-10T06:31:18;92289.63;;;17.83;72.49
52735;BME280;38631;47.572;10.704;2023-06-10T06:33:44;92292.81;;;17.88;72.73
52735;BME280;38631;47.572;10.704;2023-06-10T06:36:13;92297.25;;;18.00;73.34
52735;BME280;38631;47.572;10.704;2023-06-10T06:38:38;92288.09;;;17.82;72.36
52735;BME280;38631;47.572;10.704;2023-06-10T06:41:04;92288.00;;;17.78;73.95
52735;BME280;38631;47.572;10.704;2023-06-10T06:43:31;92306.94;;;17.85;73.40
52735;BME280;38631;47.572;10.704;2023-06-10T06:45:57;92297.81;;;17.90;75.29
52735;BME280;38631;47.572;10.704;2023-06-10T06:48:26;92302.91;;;17.95;75.29
52735;BME280;38631;47.572;10.704;2023-06-10T06:50:51;92290.94;;;18.12;75.37
52735;BME280;38631;47.572;10.704;2023-06-10T06:53:17;92296.34;;;18.16;74.30
52735;BME280;38631;47.572;10.704;2023-06-10T06:55:43;92307.16;;;17.96;74.94
52735;BME280;38631;47.572;10.704;2023-06-10T06:58:09;92300.44;;;18.29;75.47
52735;BME280;38631;47.572;10.704;2023-06-10T07:00:35;92295.00;;;18.48;74.38
52735;BME280;38631;47.572;10.704;2023-06-10T07:03:00;92293.09;;;18.49;73.81
52735;BME280;38631;47.572;10.704;2023-06-10T07:05:27;92297.19;;;18.43;72.72
52735;BME280;38631;47.572;10.704;2023-06-10T07:07:56;92292.38;;;18.52;73.05
52735;BME280;38631;47.572;10.704;2023-06-10T07:10:23;92306.56;;;18.98;72.80
52735;BME280;38631;47.572;10.704;2023-06-10T07:12:49;92283.34;;;18.90;73.47
52735;BME280;38631;47.572;10.704;2023-06-10T07:15:16;92296.31;;;18.81;71.30
52735;BME280;38631;47.572;10.704;2023-06-10T07:17:42;92299.72;;;19.05;72.90
52735;BME280;38631;47.572;10.704;2023-06-10T07:20:08;92298.72;;;18.90;71.42
52735;BME280;38631;47.572;10.704;2023-06-10T07:22:36;92302.00;;;18.76;72.14
52735;BME280;38631;47.572;10.704;2023-06-10T07:25:07;92310.38;;;18.97;73.01
52735;BME280;38631;47.572;10.704;2023-06-10T07:27:33;92308.34;;;19.17;71.42
52735;BME280;38631;47.572;10.704;2023-06-10T07:30:02;92301.78;;;19.15;70.97
52735;BME280;38631;47.572;10.704;2023-06-10T07:32:31;92298.72;;;19.16;71.30
52735;BME280;38631;47.572;10.704;2023-06-10T07:34:57;92312.22;;;19.20;70.92
52735;BME280;38631;47.572;10.704;2023-06-10T07:37:32;92308.63;;;19.09;69.74
52735;BME280;38631;47.572;10.704;2023-06-10T07:39:58;92301.06;;;18.91;69.98
52735;BME280;38631;47.572;10.704;2023-06-10T07:42:24;92314.22;;;18.96;70.45
52735;BME280;38631;47.572;10.704;2023-06-10T07:44:53;92319.38;;;19.09;70.30
52735;BME280;38631;47.572;10.704;2023-06-10T07:47:24;92311.97;;;19.29;68.07
52735;BME280;38631;47.572;10.704;2023-06-10T07:49:50;92306.97;;;19.31;66.77
52735;BME280;38631;47.572;10.704;2023-06-10T07:52:16;92313.16;;;19.31;66.42
52735;BME280;38631;47.572;10.704;2023-06-10T07:54:46;92304.97;;;19.24;66.32
52735;BME280;38631;47.572;10.704;2023-06-10T07:57:15;92310.31;;;19.51;65.16
52735;BME280;38631;47.572;10.704;2023-06-10T07:59:44;92313.16;;;19.31;65.46
52735;BME280;38631;47.572;10.704;2023-06-10T08:02:12;92299.44;;;19.43;67.06
52735;BME280;38631;47.572;10.704;2023-06-10T08:04:40;92305.94;;;19.39;66.64
52735;BME280;38631;47.572;10.704;2023-06-10T08:07:06;92301.75;;;19.41;67.94
52735;BME280;38631;47.572;10.704;2023-06-10T08:09:33;92307.91;;;19.42;65.90
52735;BME280;38631;47.572;10.704;2023-06-10T08:12:00;92308.69;;;19.42;66.41
52735;BME280;38631;47.572;10.704;2023-06-10T08:14:28;92310.19;;;19.40;67.16
52735;BME280;38631;47.572;10.704;2023-06-10T08:16:57;92304.88;;;19.47;66.39
52735;BME280;38631;47.572;10.704;2023-06-10T08:19:26;92304.00;;;19.09;67.99
52735;BME280;38631;47.572;10.704;2023-06-10T08:21:54;92313.75;;;19.21;66.16
52735;BME280;38631;47.572;10.704;2023-06-10T08:24:22;92315.84;;;19.31;66.26
52735;BME280;38631;47.572;10.704;2023-06-10T08:26:51;92309.00;;;19.37;68.29
52735;BME280;38631;47.572;10.704;2023-06-10T08:29:23;92313.16;;;19.61;66.41
52735;BME280;38631;47.572;10.704;2023-06-10T08:31:51;92320.25;;;19.16;66.69
52735;BME280;38631;47.572;10.704;2023-06-10T08:34:18;92307.88;;;19.12;67.01
52735;BME280;38631;47.572;10.704;2023-06-10T08:36:48;92302.72;;;19.26;67.85
52735;BME280;38631;47.572;10.704;2023-06-10T08:39:20;92319.94;;;19.21;67.77
52735;BME280;38631;47.572;10.704;2023-06-10T08:41:58;92311.47;;;19.19;67.99
52735;BME280;38631;47.572;10.704;2023-06-10T08:44:29;92300.16;;;19.37;68.74
52735;BME280;38631;47.572;10.704;2023-06-10T08:47:03;92321.38;;;19.42;68.96
52735;BME280;38631;47.572;10.704;2023-06-10T08:49:46;92305.63;;;19.44;69.47
52735;BME280;38631;47.572;10.704;2023-06-10T08:52:17;92312.13;;;19.13;69.19
52735;BME280;38631;47.572;10.704;2023-06-10T08:57:41;92295.41;;;19.27;70.06
52735;BME280;38631;47.572;10.704;2023-06-10T09:00:10;92303.47;;;19.27;69.99
52735;BME280;38631;47.572;10.704;2023-06-10T09:02:39;92293.47;;;19.57;68.82
52735;BME280;38631;47.572;10.704;2023-06-10T09:05:11;92302.75;;;19.30;69.29
52735;BME280;38631;47.572;10.704;2023-06-10T09:07:38;92294.75;;;19.37;69.95
52735;BME280;38631;47.572;10.704;2023-06-10T09:10:04;92294.84;;;19.74;69.00
52735;BME280;38631;47.572;10.704;2023-06-10T09:12:33;92299.78;;;19.69;70.22
52735;BME280;38631;47.572;10.704;2023-06-10T09:14:59;92304.25;;;19.57;68.59
52735;BME280;38631;47.572;10.704;2023-06-10T09:17:31;92295.13;;;19.35;68.03
52735;BME280;38631;47.572;10.704;2023-06-10T09:19:57;92290.81;;;19.31;68.52
52735;BME280;38631;47.572;10.704;2023-06-10T09:22:23;92304.13;;;19.47;68.42
52735;BME280;38631;47.572;10.704;2023-06-10T09:25:05;92291.66;;;19.35;67.61
52735;BME280;38631;47.572;10.704;2023-06-10T09:30:10;92277.97;;;19.47;68.27
52735;BME280;38631;47.572;10.704;2023-06-10T09:32:40;92300.78;;;19.87;68.59
52735;BME280;38631;47.572;10.704;2023-06-10T09:35:11;92292.50;;;19.69;67.57
52735;BME280;38631;47.572;10.704;2023-06-10T09:37:38;92292.84;;;19.68;67.27
52735;BME280;38631;47.572;10.704;2023-06-10T09:40:08;92308.94;;;19.64;67.38
52735;BME280;38631;47.572;10.704;2023-06-10T09:42:38;92293.06;;;19.55;67.23
52735;BME280;38631;47.572;10.704;2023-06-10T09:45:07;92306.16;;;19.87;66.83
52735;BME280;38631;47.572;10.704;2023-06-10T09:47:34;92296.78;;;20.11;68.94
52735;BME280;38631;47.572;10.704;2023-06-10T09:50:03;92302.03;;;19.97;66.73
52735;BME280;38631;47.572;10.704;2023-06-10T09:52:34;92301.97;;;19.93;66.73
52735;BME280;38631;47.572;10.704;2023-06-10T09:55:08;92292.34;;;19.92;65.80
52735;BME280;38631;47.572;10.704;2023-06-10T09:57:37;92299.53;;;19.81;65.63
52735;BME280;38631;47.572;10.704;2023-06-10T10:00:09;92306.41;;;19.75;65.72
52735;BME280;38631;47.572;10.704;2023-06-10T10:02:56;92302.38;;;19.95;66.03
52735;BME280;38631;47.572;10.704;2023-06-10T10:06:08;92299.53;;;20.15;64.92
52735;BME280;38631;47.572;10.704;2023-06-10T10:08:26;92291.25;;;19.97;66.61
52735;BME280;38631;47.572;10.704;2023-06-10T10:10:59;92293.72;;;20.13;64.43
52735;BME280;38631;47.572;10.704;2023-06-10T10:13:28;92299.03;;;20.05;63.91
52735;BME280;38631;47.572;10.704;2023-06-10T10:16:06;92305.41;;;20.24;62.91
52735;BME280;38631;47.572;10.704;2023-06-10T10:18:40;92297.81;;;19.99;62.23
52735;BME280;38631;47.572;10.704;2023-06-10T10:21:13;92280.16;;;20.05;63.48
52735;BME280;38631;47.572;10.704;2023-06-10T10:26:25;92278.22;;;20.02;64.36
52735;BME280;38631;47.572;10.704;2023-06-10T10:31:35;92280.66;;;20.15;63.20
52735;BME280;38631;47.572;10.704;2023-06-10T10:34:06;92283.50;;;20.33;63.06
52735;BME280;38631;47.572;10.704;2023-06-10T10:37:09;92285.16;;;20.44;62.32
52735;BME280;38631;47.572;10.704;2023-06-10T10:39:39;92297.53;;;20.53;61.96
52735;BME280;38631;47.572;10.704;2023-06-10T10:42:07;92297.19;;;20.54;59.40
52735;BME280;38631;47.572;10.704;2023-06-10T10:44:40;92282.63;;;20.62;59.89
52735;BME280;38631;47.572;10.704;2023-06-10T10:47:08;92282.22;;;20.57;60.18
52735;BME280;38631;47.572;10.704;2023-06-10T10:49:40;92283.88;;;20.76;60.44
52735;BME280;38631;47.572;10.704;2023-06-10T10:52:12;92296.94;;;20.70;59.15
52735;BME280;38631;47.572;10.704;2023-06-10T10:54:44;92280.38;;;20.71;60.38
52735;BME280;38631;47.572;10.704;2023-06-10T10:57:22;92274.19;;;20.67;59.47
52735;BME280;38631;47.572;10.704;2023-06-10T11:02:37;92284.94;;;20.64;58.79
52735;BME280;38631;47.572;10.704;2023-06-10T11:05:06;92279.72;;;20.85;58.95
52735;BME280;38631;47.572;10.704;2023-06-10T11:07:38;92275.84;;;20.86;59.74
52735;BME280;38631;47.572;10.704;2023-06-10T11:10:16;92281.28;;;20.90;60.45
52735;BME280;38631;47.572;10.704;2023-06-10T11:12:50;92271.97;;;20.84;57.79
52735;BME280;38631;47.572;10.704;2023-06-10T11:15:25;92273.91;;;20.83;56.20
52735;BME280;38631;47.572;10.704;2023-06-10T11:20:51;92277.94;;;21.11;59.31
52735;BME280;38631;47.572;10.704;2023-06-10T11:26:13;92281.13;;;21.31;57.34
52735;BME280;38631;47.572;10.704;2023-06-10T11:33:47;92286.25;;;21.43;58.65
52735;BME280;38631;47.572;10.704;2023-06-10T11:36:17;92270.56;;;21.01;58.43
52735;BME280;38631;47.572;10.704;2023-06-10T11:38:43;92275.31;;;21.25;60.17
52735;BME280;38631;47.572;10.704;2023-06-10T11:41:11;92283.53;;;21.40;59.35
52735;BME280;38631;47.572;10.704;2023-06-10T11:43:44;92277.31;;;21.35;57.06
52735;BME280;38631;47.572;10.704;2023-06-10T11:46:14;92282.81;;;21.50;59.55
52735;BME280;38631;47.572;10.704;2023-06-10T11:48:56;92271.38;;;21.08;60.49
52735;BME280;38631;47.572;10.704;2023-06-10T11:51:26;92260.41;;;20.80;61.28
52735;BME280;38631;47.572;10.704;2023-06-10T11:53:55;92263.16;;;20.90;62.52
52735;BME280;38631;47.572;10.704;2023-06-10T11:56:26;92262.09;;;21.02;61.33
52735;BME280;38631;47.572;10.704;2023-06-10T11:59:04;92275.16;;;20.97;61.11
52735;BME280;38631;47.572;10.704;2023-06-10T12:01:37;92271.88;;;20.69;60.72
52735;BME280;38631;47.572;10.704;2023-06-10T12:04:14;92267.22;;;20.63;60.72
52735;BME280;38631;47.572;10.704;2023-06-10T12:06:49;92266.09;;;20.71;60.50
52735;BME280;38631;47.572;10.704;2023-06-10T12:09:22;92266.66;;;20.95;61.85
52735;BME280;38631;47.572;10.704;2023-06-10T12:11:58;92255.41;;;20.85;60.22
52735;BME280;38631;47.572;10.704;2023-06-10T12:14:58;92266.31;;;21.00;58.17
52735;BME280;38631;47.572;10.704;2023-06-10T12:20:05;92261.13;;;21.39;57.28
52735;BME280;38631;47.572;10.704;2023-06-10T12:22:43;92256.47;;;21.32;56.58
52735;BME280;38631;47.572;10.704;2023-06-10T12:25:10;92254.06;;;21.20;56.94
52735;BME280;38631;47.572;10.704;2023-06-10T12:27:36;92243.69;;;21.26;56.86
52735;BME280;38631;47.572;10.704;2023-06-10T12:30:07;92254.94;;;21.35;55.12
52735;BME280;38631;47.572;10.704;2023-06-10T12:32:47;92243.41;;;21.45;55.96
52735;BME280;38631;47.572;10.704;2023-06-10T12:35:18;92246.84;;;21.39;54.50
52735;BME280;38631;47.572;10.704;2023-06-10T12:38:06;92247.25;;;21.41;54.95
52735;BME280;38631;47.572;10.704;2023-06-10T12:40:37;92241.09;;;21.40;54.48
52735;BME280;38631;47.572;10.704;2023-06-10T12:43:09;92242.22;;;21.39;55.04
52735;BME280;38631;47.572;10.704;2023-06-10T12:45:37;92247.66;;;21.43;54.22
52735;BME280;38631;47.572;10.704;2023-06-10T12:48:19;92235.63;;;21.36;56.71
52735;BME280;38631;47.572;10.704;2023-06-10T12:50:50;92234.22;;;21.61;55.71
52735;BME280;38631;47.572;10.704;2023-06-10T12:53:20;92242.31;;;21.61;56.91
52735;BME280;38631;47.572;10.704;2023-06-10T12:55:47;92229.63;;;21.72;59.25
52735;BME280;38631;47.572;10.704;2023-06-10T12:58:31;92224.56;;;21.63;55.75
52735;BME280;38631;47.572;10.704;2023-06-10T13:00:58;92226.44;;;21.48;54.39
52735;BME280;38631;47.572;10.704;2023-06-10T13:03:24;92234.22;;;21.61;54.04
52735;BME280;38631;47.572;10.704;2023-06-10T13:05:53;92231.16;;;21.76;54.06
52735;BME280;38631;47.572;10.704;2023-06-10T13:08:24;92223.41;;;21.64;51.64
52735;BME280;38631;47.572;10.704;2023-06-10T13:10:50;92229.19;;;21.55;54.17
52735;BME280;38631;47.572;10.704;2023-06-10T13:13:16;92224.53;;;21.52;55.06
52735;BME280;38631;47.572;10.704;2023-06-10T13:15:44;92221.47;;;21.57;55.72
52735;BME280;38631;47.572;10.704;2023-06-10T13:18:20;92242.75;;;21.73;56.88
52735;BME280;38631;47.572;10.704;2023-06-10T13:20:52;92243.56;;;21.92;58.36
52735;BME280;38631;47.572;10.704;2023-06-10T13:23:17;92230.78;;;21.82;59.51
52735;BME280;38631;47.572;10.704;2023-06-10T13:25:48;92233.88;;;21.84;57.87